createdAt,value
2019-01-04T00:02:02.079Z,951.98
2019-01-04T00:04:28.391Z,951.97
2019-01-04T00:06:54.676Z,952.06
2019-01-04T00:09:20.968Z,952.03
2019-01-04T00:11:47.301Z,951.98
2019-01-04T00:14:13.612Z,952.05
2019-01-04T00:16:39.895Z,952.07
2019-01-04T00:19:06.184Z,952.11
2019-01-04T00:21:32.465Z,952.12
2019-01-04T00:23:58.743Z,952.17
2019-01-04T00:26:25.021Z,952.18
2019-01-04T00:28:51.307Z,952.17
2019-01-04T00:31:17.593Z,952.17
2019-01-04T00:33:43.888Z,952.19
2019-01-04T00:36:10.198Z,952.25
2019-01-04T00:38:36.492Z,952.21
2019-01-04T00:41:02.766Z,952.21
2019-01-04T00:43:29.056Z,952.26
2019-01-04T00:45:55.348Z,952.20
2019-01-04T00:48:21.643Z,952.24
2019-01-04T00:50:47.939Z,952.16
2019-01-04T00:53:14.265Z,952.30
2019-01-04T00:55:40.552Z,952.25
2019-01-04T00:58:06.841Z,952.12
2019-01-04T01:00:33.125Z,952.18
2019-01-04T01:02:59.401Z,952.26
2019-01-04T01:05:25.737Z,952.23
2019-01-04T01:07:52.044Z,952.26
2019-01-04T01:10:18.320Z,952.25
2019-01-04T01:12:44.644Z,952.27
2019-01-04T01:15:10.945Z,952.24
2019-01-04T01:17:37.239Z,952.17
2019-01-04T01:20:03.515Z,952.23
2019-01-04T01:22:29.786Z,952.22
2019-01-04T01:24:56.105Z,952.23
2019-01-04T01:27:22.401Z,952.20
2019-01-04T01:29:48.701Z,952.24
2019-01-04T01:32:15.005Z,952.09
2019-01-04T01:34:41.280Z,952.15
2019-01-04T01:37:07.635Z,952.15
2019-01-04T01:39:33.915Z,952.14
2019-01-04T01:42:00.207Z,952.13
2019-01-04T01:44:26.503Z,952.13
2019-01-04T01:46:52.794Z,952.13
2019-01-04T01:49:19.078Z,952.15
2019-01-04T01:51:45.377Z,952.12
2019-01-04T01:54:11.656Z,952.11
2019-01-04T01:56:37.944Z,952.10
2019-01-04T01:59:04.248Z,952.07
2019-01-04T02:01:30.529Z,952.16
2019-01-04T02:03:56.808Z,952.14
2019-01-04T02:06:23.114Z,952.12
2019-01-04T02:08:49.407Z,952.04
2019-01-04T02:11:15.733Z,952.12
2019-01-04T02:13:41.983Z,952.16
2019-01-04T02:16:08.263Z,952.15
2019-01-04T02:18:34.534Z,952.24
2019-01-04T02:21:00.831Z,952.18
2019-01-04T02:23:27.165Z,952.18
2019-01-04T02:25:53.444Z,952.14
2019-01-04T02:28:19.752Z,952.14
2019-01-04T02:30:46.046Z,952.15
2019-01-04T02:33:12.338Z,952.15
2019-01-04T02:35:38.660Z,952.19
2019-01-04T02:38:04.938Z,952.20
2019-01-04T02:40:31.228Z,952.21
2019-01-04T02:42:57.526Z,952.24
2019-01-04T02:45:23.826Z,952.24
2019-01-04T02:47:50.099Z,952.26
2019-01-04T02:50:16.384Z,952.26
2019-01-04T02:52:42.721Z,952.26
2019-01-04T02:55:09.011Z,952.18
2019-01-04T02:57:35.299Z,952.23
2019-01-04T03:00:01.582Z,952.31
2019-01-04T03:02:27.873Z,952.32
2019-01-04T03:04:54.160Z,952.36
2019-01-04T03:07:20.429Z,952.30
2019-01-04T03:09:46.760Z,952.25
2019-01-04T03:12:13.044Z,952.44
2019-01-04T03:14:39.342Z,952.41
2019-01-04T03:17:05.642Z,952.44
2019-01-04T03:19:31.931Z,952.46
2019-01-04T03:21:58.247Z,952.51
2019-01-04T03:24:24.543Z,952.50
2019-01-04T03:26:50.822Z,952.57
2019-01-04T03:29:17.114Z,952.61
2019-01-04T03:31:43.556Z,952.59
2019-01-04T03:34:09.742Z,952.59
2019-01-04T03:36:36.025Z,952.59
2019-01-04T03:39:02.300Z,952.61
2019-01-04T03:41:28.596Z,952.55
2019-01-04T03:43:54.891Z,952.63
2019-01-04T03:46:21.169Z,952.61
2019-01-04T03:48:47.473Z,952.62
2019-01-04T03:51:13.746Z,952.69
2019-01-04T03:53:40.050Z,952.74
2019-01-04T03:56:06.344Z,952.69
2019-01-04T03:58:32.640Z,952.71
2019-01-04T04:00:58.953Z,952.85
2019-01-04T04:03:25.226Z,952.79
2019-01-04T04:05:51.543Z,952.83
2019-01-04T04:08:17.822Z,952.85
2019-01-04T04:10:44.129Z,952.80
2019-01-04T04:13:10.414Z,952.85
2019-01-04T04:15:36.720Z,952.90
2019-01-04T04:18:03.010Z,952.94
2019-01-04T04:20:29.272Z,952.95
2019-01-04T04:22:55.582Z,952.97
2019-01-04T04:25:21.941Z,952.99
2019-01-04T04:27:48.200Z,952.96
2019-01-04T04:30:14.511Z,953.02
2019-01-04T04:32:40.795Z,953.06
2019-01-04T04:35:07.090Z,953.03
2019-01-04T04:37:33.370Z,953.05
2019-01-04T04:39:59.679Z,953.06
2019-01-04T04:42:25.967Z,953.14
2019-01-04T04:44:52.243Z,953.08
2019-01-04T04:47:18.558Z,953.15
2019-01-04T04:49:44.868Z,953.16
2019-01-04T04:52:11.152Z,953.18
2019-01-04T04:54:37.473Z,953.18
2019-01-04T04:57:03.772Z,953.22
2019-01-04T04:59:30.064Z,953.22
2019-01-04T05:01:56.353Z,953.24
2019-01-04T05:04:22.683Z,953.23
2019-01-04T05:06:48.983Z,953.30
2019-01-04T05:09:15.261Z,953.30
2019-01-04T05:11:41.535Z,953.31
2019-01-04T05:14:07.842Z,953.29
2019-01-04T05:16:34.145Z,953.26
2019-01-04T05:19:00.407Z,953.32
2019-01-04T05:21:26.708Z,953.36
2019-01-04T05:23:52.998Z,953.49
2019-01-04T05:26:19.279Z,953.49
2019-01-04T05:28:45.598Z,953.48
2019-01-04T05:31:11.873Z,953.52
2019-01-04T05:33:38.162Z,953.61
2019-01-04T05:36:04.434Z,953.59
2019-01-04T05:38:30.740Z,953.66
2019-01-04T05:40:57.022Z,953.71
2019-01-04T05:43:23.333Z,953.72
2019-01-04T05:45:49.608Z,953.81
2019-01-04T05:48:15.893Z,953.93
2019-01-04T05:50:43.487Z,953.93
2019-01-04T05:53:09.741Z,953.93
2019-01-04T05:55:36.031Z,954.03
2019-01-04T05:58:02.340Z,954.05
2019-01-04T06:00:28.667Z,954.02
2019-01-04T06:02:54.961Z,954.04
2019-01-04T06:05:21.241Z,954.16
2019-01-04T06:07:47.558Z,954.20
2019-01-04T06:10:13.834Z,954.24
2019-01-04T06:12:40.144Z,954.35
2019-01-04T06:15:06.415Z,954.33
2019-01-04T06:17:32.701Z,954.45
2019-01-04T06:19:58.982Z,954.49
2019-01-04T06:22:25.323Z,954.51
2019-01-04T06:24:51.596Z,954.59
2019-01-04T06:27:17.892Z,954.59
2019-01-04T06:29:44.175Z,954.62
2019-01-04T06:32:10.465Z,954.71
2019-01-04T06:34:36.753Z,954.67
2019-01-04T06:37:03.062Z,954.74
2019-01-04T06:39:29.382Z,954.75
2019-01-04T06:41:55.729Z,954.84
2019-01-04T06:44:21.990Z,954.82
2019-01-04T06:46:48.292Z,954.87
2019-01-04T06:49:14.576Z,954.84
2019-01-04T06:51:40.854Z,954.88
2019-01-04T06:54:07.154Z,954.97
2019-01-04T06:56:33.447Z,954.99
2019-01-04T06:58:59.734Z,955.06
2019-01-04T07:01:26.026Z,955.16
2019-01-04T07:03:52.304Z,955.22
2019-01-04T07:06:18.604Z,955.23
2019-01-04T07:08:44.904Z,955.28
2019-01-04T07:11:11.215Z,955.30
2019-01-04T07:13:37.496Z,955.39
2019-01-04T07:16:03.763Z,955.46
2019-01-04T07:18:30.051Z,955.56
2019-01-04T07:20:56.360Z,955.56
2019-01-04T07:23:22.644Z,955.62
2019-01-04T07:25:48.938Z,955.65
2019-01-04T07:28:15.290Z,955.66
2019-01-04T07:30:41.590Z,955.72
2019-01-04T07:33:07.869Z,955.80
2019-01-04T07:35:34.195Z,955.87
2019-01-04T07:38:00.468Z,955.90
2019-01-04T07:40:26.766Z,955.96
2019-01-04T07:42:53.052Z,956.03
2019-01-04T07:45:19.361Z,955.99
2019-01-04T07:47:45.678Z,956.00
2019-01-04T07:50:11.985Z,955.98
2019-01-04T07:52:38.257Z,956.00
2019-01-04T07:55:04.564Z,956.03
2019-01-04T07:57:30.847Z,956.15
2019-01-04T07:59:57.160Z,956.12
2019-01-04T08:02:23.461Z,956.16
2019-01-04T08:04:49.807Z,956.21
2019-01-04T08:07:16.055Z,956.20
2019-01-04T08:09:42.328Z,956.21
2019-01-04T08:12:08.611Z,956.26
2019-01-04T08:14:34.911Z,956.28
2019-01-04T08:17:01.209Z,956.30
2019-01-04T08:19:27.501Z,956.33
2019-01-04T08:21:53.801Z,956.40
2019-01-04T08:24:20.129Z,956.38
2019-01-04T08:26:46.405Z,956.42
2019-01-04T08:29:12.702Z,956.39
2019-01-04T08:31:38.996Z,956.32
2019-01-04T08:34:05.275Z,956.39
2019-01-04T08:36:31.576Z,956.42
2019-01-04T08:38:57.866Z,956.45
2019-01-04T08:41:24.188Z,956.46
2019-01-04T08:43:50.484Z,956.51
2019-01-04T08:46:16.785Z,956.48
2019-01-04T08:48:43.056Z,956.41
2019-01-04T08:51:09.344Z,956.40
2019-01-04T08:53:35.677Z,956.36
2019-01-04T08:56:01.982Z,956.38
2019-01-04T08:58:28.277Z,956.36
2019-01-04T09:00:54.558Z,956.30
2019-01-04T09:03:20.867Z,956.29
2019-01-04T09:05:47.145Z,956.23
2019-01-04T09:08:13.414Z,956.27
2019-01-04T09:10:39.686Z,956.23
2019-01-04T09:13:05.968Z,956.19
2019-01-04T09:15:32.261Z,956.26
2019-01-04T09:17:58.606Z,956.23
2019-01-04T09:20:24.895Z,956.27
2019-01-04T09:22:51.184Z,956.32
2019-01-04T09:25:17.466Z,956.30
2019-01-04T09:27:43.766Z,956.30
2019-01-04T09:30:10.088Z,956.27
2019-01-04T09:32:36.373Z,956.31
2019-01-04T09:35:02.687Z,956.29
2019-01-04T09:37:28.956Z,956.25
2019-01-04T09:39:55.240Z,956.32
2019-01-04T09:42:21.514Z,956.29
2019-01-04T09:44:47.811Z,956.39
2019-01-04T09:47:14.117Z,956.37
2019-01-04T09:49:40.416Z,956.39
2019-01-04T09:52:06.746Z,956.45
2019-01-04T09:54:33.025Z,956.47
2019-01-04T09:56:59.336Z,956.45
2019-01-04T09:59:25.655Z,956.44
2019-01-04T10:01:51.938Z,956.35
2019-01-04T10:04:18.231Z,956.33
2019-01-04T10:06:44.516Z,956.39
2019-01-04T10:09:10.803Z,956.36
2019-01-04T10:11:37.113Z,956.43
2019-01-04T10:14:03.442Z,956.41
2019-01-04T10:16:29.739Z,956.42
2019-01-04T10:18:56.758Z,956.38
2019-01-04T10:21:22.300Z,956.36
2019-01-04T10:23:48.611Z,956.42
2019-01-04T10:26:14.900Z,956.42
2019-01-04T10:28:41.201Z,956.38
2019-01-04T10:31:07.517Z,956.39
2019-01-04T10:33:33.810Z,956.39
2019-01-04T10:36:00.096Z,956.38
2019-01-04T10:38:26.374Z,956.33
2019-01-04T10:40:52.672Z,956.42
2019-01-04T10:43:18.954Z,956.37
2019-01-04T10:45:45.258Z,956.40
2019-01-04T10:48:11.571Z,956.44
2019-01-04T10:50:37.905Z,956.39
2019-01-04T10:53:04.199Z,956.40
2019-01-04T10:55:30.485Z,956.38
2019-01-04T10:57:56.771Z,956.35
2019-01-04T11:00:23.064Z,956.37
2019-01-04T11:02:49.353Z,956.39
2019-01-04T11:05:15.661Z,956.38
2019-01-04T11:07:41.965Z,956.36
2019-01-04T11:10:08.259Z,956.39
2019-01-04T11:12:34.548Z,956.37
2019-01-04T11:15:00.822Z,956.42
2019-01-04T11:17:27.115Z,956.40
2019-01-04T11:19:53.410Z,956.43
2019-01-04T11:22:19.696Z,956.49
2019-01-04T11:24:46.002Z,956.46
2019-01-04T11:27:12.294Z,956.43
2019-01-04T11:29:38.605Z,956.39
2019-01-04T11:32:04.905Z,956.47
2019-01-04T11:34:31.179Z,956.50
2019-01-04T11:36:57.471Z,956.46
2019-01-04T11:39:23.760Z,956.47
2019-01-04T11:41:50.046Z,956.45
2019-01-04T11:44:16.352Z,956.46
2019-01-04T11:46:42.695Z,956.48
2019-01-04T11:49:08.988Z,956.52
2019-01-04T11:51:35.271Z,956.53
2019-01-04T11:54:01.588Z,956.51
2019-01-04T11:56:27.883Z,956.53
2019-01-04T11:58:54.183Z,956.54
2019-01-04T12:01:20.458Z,956.55
2019-01-04T12:03:46.754Z,956.49
2019-01-04T12:06:13.051Z,956.59
2019-01-04T12:08:39.322Z,956.59
2019-01-04T12:11:05.629Z,956.61
2019-01-04T12:13:31.931Z,956.67
2019-01-04T12:15:58.213Z,956.52
2019-01-04T12:18:24.526Z,956.52
2019-01-04T12:20:50.802Z,956.58
2019-01-04T12:23:17.133Z,956.65
2019-01-04T12:25:43.415Z,956.61
2019-01-04T12:28:09.710Z,956.59
2019-01-04T12:30:35.996Z,956.53
2019-01-04T12:33:02.295Z,956.49
2019-01-04T12:35:28.599Z,956.53
2019-01-04T12:37:54.879Z,956.67
2019-01-04T12:40:21.168Z,956.69
2019-01-04T12:42:47.482Z,956.72
2019-01-04T12:45:13.789Z,956.68
2019-01-04T12:47:40.088Z,956.64
2019-01-04T12:50:06.391Z,956.68
2019-01-04T12:52:32.716Z,956.73
2019-01-04T12:54:59.025Z,956.72
2019-01-04T12:57:25.304Z,956.78
2019-01-04T12:59:51.578Z,956.84
2019-01-04T13:02:17.858Z,956.76
2019-01-04T13:04:44.141Z,956.83
2019-01-04T13:07:10.434Z,956.85
2019-01-04T13:09:36.774Z,956.88
2019-01-04T13:12:03.063Z,956.92
2019-01-04T13:14:29.363Z,956.91
2019-01-04T13:16:55.646Z,956.90
2019-01-04T13:19:25.685Z,956.96
2019-01-04T13:21:48.227Z,956.92
2019-01-04T13:24:14.573Z,956.87
2019-01-04T13:26:40.852Z,956.79
2019-01-04T13:29:07.127Z,956.86
2019-01-04T13:31:33.468Z,956.80
2019-01-04T13:33:59.770Z,956.79
2019-01-04T13:36:26.052Z,956.81
2019-01-04T13:38:52.365Z,956.73
2019-01-04T13:41:18.658Z,956.81
2019-01-04T13:43:44.951Z,956.75
2019-01-04T13:46:11.229Z,956.75
2019-01-04T13:48:37.510Z,956.80
2019-01-04T13:51:03.791Z,956.80
2019-01-04T13:53:30.115Z,956.76
2019-01-04T13:55:56.413Z,956.84
2019-01-04T13:58:22.707Z,956.80
2019-01-04T14:00:49.037Z,956.73
2019-01-04T14:03:15.349Z,956.74
2019-01-04T14:05:41.663Z,956.83
2019-01-04T14:08:07.954Z,956.85
2019-01-04T14:10:34.254Z,956.88
2019-01-04T14:13:00.555Z,956.86
2019-01-04T14:15:26.838Z,956.93
2019-01-04T14:17:53.153Z,956.93
2019-01-04T14:20:19.436Z,956.88
2019-01-04T14:22:45.738Z,956.92
2019-01-04T14:25:12.048Z,956.86
2019-01-04T14:27:38.338Z,956.83
2019-01-04T14:30:11.310Z,956.83
2019-01-04T14:32:37.605Z,956.87
2019-01-04T14:35:03.882Z,956.89
2019-01-04T14:37:30.192Z,956.88
2019-01-04T14:39:56.479Z,956.96
2019-01-04T14:42:22.771Z,956.93
2019-01-04T14:44:49.055Z,956.97
2019-01-04T14:47:15.384Z,957.02
2019-01-04T14:49:41.682Z,956.99
2019-01-04T14:52:07.998Z,956.99
2019-01-04T14:54:34.282Z,956.92
2019-01-04T14:57:00.574Z,956.94
2019-01-04T14:59:26.863Z,957.01
2019-01-04T15:01:53.158Z,956.95
2019-01-04T15:04:19.453Z,957.02
2019-01-04T15:06:45.742Z,956.98
2019-01-04T15:09:12.071Z,957.03
2019-01-04T15:11:38.407Z,957.04
2019-01-04T15:14:04.647Z,957.07
2019-01-04T15:16:30.944Z,957.04
2019-01-04T15:18:57.246Z,957.07
2019-01-04T15:21:23.551Z,957.08
2019-01-04T15:23:49.826Z,957.05
2019-01-04T15:26:16.114Z,957.15
2019-01-04T15:28:42.393Z,957.06
2019-01-04T15:31:08.718Z,957.14
2019-01-04T15:33:35.000Z,957.12
2019-01-04T15:36:01.322Z,957.12
2019-01-04T15:38:27.617Z,957.05
2019-01-04T15:40:53.922Z,957.07
2019-01-04T15:43:20.201Z,957.10
2019-01-04T15:45:46.493Z,957.05
2019-01-04T15:48:12.776Z,957.09
2019-01-04T15:50:39.089Z,957.14
2019-01-04T15:53:05.382Z,957.09
2019-01-04T15:55:31.680Z,957.14
2019-01-04T15:57:57.986Z,957.13
2019-01-04T16:00:24.293Z,957.22
2019-01-04T16:02:50.619Z,957.27
2019-01-04T16:05:16.945Z,957.34
2019-01-04T16:07:43.250Z,957.30
2019-01-04T16:10:09.530Z,957.38
2019-01-04T16:12:35.819Z,957.39
2019-01-04T16:15:02.110Z,957.36
2019-01-04T16:17:28.395Z,957.35
2019-01-04T16:19:54.697Z,957.35
2019-01-04T16:22:20.997Z,957.38
2019-01-04T16:24:47.316Z,957.37
2019-01-04T16:27:13.595Z,957.31
2019-01-04T16:29:39.995Z,957.33
2019-01-04T16:32:06.254Z,957.31
2019-01-04T16:34:32.547Z,957.25
2019-01-04T16:36:58.819Z,957.32
2019-01-04T16:39:25.156Z,957.29
2019-01-04T16:41:51.422Z,957.27
2019-01-04T16:44:17.720Z,957.24
2019-01-04T16:46:44.026Z,957.31
2019-01-04T16:49:10.379Z,957.26
2019-01-04T16:51:36.702Z,957.28
2019-01-04T16:54:03.012Z,957.27
2019-01-04T16:56:29.289Z,957.34
2019-01-04T16:58:55.596Z,957.30
2019-01-04T17:01:21.923Z,957.25
2019-01-04T17:03:48.213Z,957.29
2019-01-04T17:06:14.536Z,957.31
2019-01-04T17:08:40.819Z,957.31
2019-01-04T17:11:07.110Z,957.24
2019-01-04T17:13:33.390Z,957.27
2019-01-04T17:15:59.700Z,957.22
2019-01-04T17:18:26.005Z,957.28
2019-01-04T17:20:52.294Z,957.29
2019-01-04T17:23:18.587Z,957.18
2019-01-04T17:25:44.884Z,957.19
2019-01-04T17:28:11.230Z,957.14
2019-01-04T17:30:37.505Z,957.15
2019-01-04T17:33:03.841Z,957.13
2019-01-04T17:35:30.123Z,957.11
2019-01-04T17:37:56.398Z,957.12
2019-01-04T17:40:22.915Z,957.15
2019-01-04T17:42:49.231Z,957.21
2019-01-04T17:45:15.523Z,957.18
2019-01-04T17:47:41.868Z,957.19
2019-01-04T17:50:08.269Z,957.26
2019-01-04T17:52:34.594Z,957.13
2019-01-04T17:55:00.879Z,957.20
2019-01-04T17:57:27.147Z,957.19
2019-01-04T17:59:53.498Z,957.16
2019-01-04T18:02:19.795Z,957.26
2019-01-04T18:04:46.088Z,957.16
2019-01-04T18:07:12.402Z,957.20
2019-01-04T18:09:38.703Z,957.23
2019-01-04T18:12:05.028Z,957.19
2019-01-04T18:14:31.323Z,957.21
2019-01-04T18:16:57.632Z,957.34
2019-01-04T18:19:23.917Z,957.33
2019-01-04T18:21:50.206Z,957.36
2019-01-04T18:24:16.483Z,957.40
2019-01-04T18:26:42.754Z,957.47
2019-01-04T18:29:09.071Z,957.45
2019-01-04T18:31:35.361Z,957.47
2019-01-04T18:34:01.641Z,957.47
2019-01-04T18:36:27.969Z,957.52
2019-01-04T18:38:54.275Z,957.63
2019-01-04T18:41:20.580Z,957.60
2019-01-04T18:43:46.862Z,957.45
2019-01-04T18:46:13.155Z,957.50
2019-01-04T18:48:39.645Z,957.42
2019-01-04T18:51:05.917Z,957.51
2019-01-04T18:53:32.232Z,957.50
2019-01-04T18:55:58.503Z,957.47
2019-01-04T18:58:25.056Z,957.47
2019-01-04T19:00:51.344Z,957.54
2019-01-04T19:03:19.567Z,957.54
2019-01-04T19:05:45.893Z,957.57
2019-01-04T19:08:12.186Z,957.60
2019-01-04T19:10:38.480Z,957.60
2019-01-04T19:13:04.761Z,957.62
2019-01-04T19:15:31.243Z,957.64
2019-01-04T19:17:57.526Z,957.64
2019-01-04T19:20:23.860Z,957.63
2019-01-04T19:22:50.170Z,957.67
2019-01-04T19:25:16.557Z,957.62
2019-01-04T19:27:42.832Z,957.64
2019-01-04T19:30:09.278Z,957.63
2019-01-04T19:32:35.653Z,957.66
2019-01-04T19:35:01.952Z,957.59
2019-01-04T19:37:28.513Z,957.65
2019-01-04T19:39:54.845Z,957.61
2019-01-04T19:42:21.184Z,957.61
2019-01-04T19:44:47.475Z,957.63
2019-01-04T19:47:16.641Z,957.61
2019-01-04T19:49:42.963Z,957.64
2019-01-04T19:52:09.249Z,957.61
2019-01-04T19:54:35.547Z,957.61
2019-01-04T19:57:01.846Z,957.65
2019-01-04T19:59:28.132Z,957.67
2019-01-04T20:01:55.430Z,957.63
2019-01-04T20:04:21.709Z,957.64
2019-01-04T20:06:48.014Z,957.70
2019-01-04T20:09:14.357Z,957.60
2019-01-04T20:11:40.661Z,957.58
2019-01-04T20:14:06.974Z,957.56
2019-01-04T20:16:33.265Z,957.61
2019-01-04T20:18:59.690Z,957.55
2019-01-04T20:21:25.963Z,957.56
2019-01-04T20:23:52.257Z,957.57
2019-01-04T20:26:18.540Z,957.58
2019-01-04T20:28:44.809Z,957.53
2019-01-04T20:31:11.100Z,957.51
2019-01-04T20:33:37.391Z,957.53
2019-01-04T20:36:03.735Z,957.47
2019-01-04T20:38:30.041Z,957.48
2019-01-04T20:40:56.321Z,957.44
2019-01-04T20:43:22.617Z,957.46
2019-01-04T20:45:48.911Z,957.50
2019-01-04T20:48:15.183Z,957.44
2019-01-04T20:50:41.475Z,957.46
2019-01-04T20:53:07.795Z,957.43
2019-01-04T20:55:34.078Z,957.38
2019-01-04T20:58:00.365Z,957.40
2019-01-04T21:00:26.682Z,957.47
2019-01-04T21:02:53.005Z,957.41
2019-01-04T21:05:19.250Z,957.57
2019-01-04T21:07:45.567Z,957.63
2019-01-04T21:10:13.025Z,957.54
2019-01-04T21:12:38.144Z,957.48
2019-01-04T21:15:04.434Z,957.56
2019-01-04T21:17:30.731Z,957.53
2019-01-04T21:19:57.091Z,957.50
2019-01-04T21:22:23.367Z,957.50
2019-01-04T21:24:49.666Z,957.55
2019-01-04T21:27:15.996Z,957.48
2019-01-04T21:29:42.268Z,957.47
2019-01-04T21:32:08.576Z,957.46
2019-01-04T21:34:34.867Z,957.48
2019-01-04T21:37:01.135Z,957.47
2019-01-04T21:39:27.446Z,957.43
2019-01-04T21:41:53.758Z,957.37
2019-01-04T21:44:20.079Z,957.38
2019-01-04T21:46:46.383Z,957.27
2019-01-04T21:49:12.674Z,957.23
2019-01-04T21:51:39.104Z,957.15
2019-01-04T21:54:05.269Z,957.18
2019-01-04T21:56:31.595Z,957.18
2019-01-04T21:58:57.877Z,957.10
2019-01-04T22:01:24.152Z,957.03
2019-01-04T22:03:50.483Z,957.01
2019-01-04T22:06:16.753Z,956.97
2019-01-04T22:08:43.063Z,956.90
2019-01-04T22:11:09.346Z,956.94
2019-01-04T22:13:35.663Z,956.86
2019-01-04T22:16:01.967Z,956.90
2019-01-04T22:18:28.242Z,956.93
2019-01-04T22:20:54.592Z,956.87
2019-01-04T22:23:20.837Z,956.80
2019-01-04T22:25:47.150Z,956.79
2019-01-04T22:28:13.423Z,956.77
2019-01-04T22:30:39.772Z,956.70
2019-01-04T22:33:06.055Z,956.75
2019-01-04T22:35:32.366Z,956.68
2019-01-04T22:37:58.640Z,956.61
2019-01-04T22:40:24.937Z,956.62
2019-01-04T22:42:51.254Z,956.63
2019-01-04T22:45:17.508Z,956.55
2019-01-04T22:47:43.855Z,956.49
2019-01-04T22:50:10.161Z,956.49
2019-01-04T22:52:36.444Z,956.53
2019-01-04T22:55:02.734Z,956.55
2019-01-04T22:57:29.024Z,956.52
2019-01-04T22:59:55.318Z,956.58
2019-01-04T23:02:21.618Z,956.62
2019-01-04T23:04:47.916Z,956.56
2019-01-04T23:07:14.217Z,956.68
2019-01-04T23:09:40.496Z,956.71
2019-01-04T23:12:06.785Z,956.67
2019-01-04T23:14:33.079Z,956.60
2019-01-04T23:16:59.371Z,956.61
2019-01-04T23:19:25.669Z,956.66
2019-01-04T23:21:53.255Z,956.64
2019-01-04T23:24:18.312Z,956.71
2019-01-04T23:26:44.634Z,956.75
2019-01-04T23:29:10.930Z,956.66
2019-01-04T23:31:37.204Z,956.69
2019-01-04T23:34:03.510Z,956.65
2019-01-04T23:36:29.844Z,956.68
2019-01-04T23:38:56.121Z,956.64
2019-01-04T23:41:22.409Z,956.53
2019-01-04T23:43:48.694Z,956.44
2019-01-04T23:46:14.984Z,956.41
2019-01-04T23:48:41.514Z,956.38
2019-01-04T23:51:07.825Z,956.37
2019-01-04T23:53:34.102Z,956.32
2019-01-04T23:56:00.380Z,956.30
2019-01-04T23:58:26.683Z,956.30
